^^
Grace C. Lehan Memorial Weather Station Historical Data
Daily Summary for August 21, 2021 Units:  Metric    English   Both
Daily Weekly Monthly Yearly
  High: Low: Average:
Temperature: 21.3 °C 11.9 °C 14 °C
Dew Point: 13.3 °C 10.1 °C 11.2 °C
Humidity: 91% 59% 84%
Wind Speed: 0.2km/h 0km/h 0km/h
Wind Gust: 4.8km/h - -
Wind- - SSW
Pressure: 1032.4 hPa 1031.4 hPa -
Precipitation: 0 mm    
 
 
Tabular Data for August 21, 2021
Time Temperature Dew Point Pressure Wind Wind Speed Wind Gust Humidity Rainfall Rate (Hourly) solar
00:00 14.4 °C 10.4 °C 1031.7 hPa Calm     77% 0 mm 0 W/m2
00:09 14.4 °C 10.4 °C 1031.7 hPa Calm     77% 0 mm 0 W/m2
00:14 14.3 °C 10.5 °C 1032.1 hPa Calm     77.7% 0 mm 0 W/m2
00:19 14.3 °C 10.6 °C 1032.1 hPa Calm     78% 0 mm 0 W/m2
00:24 14.3 °C 10.5 °C 1032.1 hPa Calm     78% 0 mm 0 W/m2
00:29 14.3 °C 10.5 °C 1031.7 hPa Calm     78% 0 mm 0 W/m2
00:34 14.2 °C 10.5 °C 1032.1 hPa Calm     78.3% 0 mm 0 W/m2
00:39 14.2 °C 10.6 °C 1032.1 hPa Calm     78.9% 0 mm 0 W/m2
00:44 14.1 °C 10.6 °C 1032.1 hPa Calm     79.1% 0 mm 0 W/m2
00:49 14.1 °C 10.7 °C 1032.1 hPa Calm     80% 0 mm 0 W/m2
00:54 14.1 °C 10.7 °C 1032.1 hPa Calm     80% 0 mm 0 W/m2
00:59 14 °C 10.6 °C 1032.1 hPa Calm     80% 0 mm 0 W/m2
01:04 14 °C 10.6 °C 1032.1 hPa Calm     80% 0 mm 0 W/m2
01:09 13.9 °C 10.7 °C 1032.1 hPa Calm     80.7% 0 mm 0 W/m2
01:14 13.9 °C 10.7 °C 1032.1 hPa Calm     81% 0 mm 0 W/m2
01:19 13.9 °C 10.7 °C 1031.7 hPa Calm     81% 0 mm 0 W/m2
01:24 13.8 °C 10.7 °C 1031.7 hPa Calm     81% 0 mm 0 W/m2
01:29 13.8 °C 10.6 °C 1031.7 hPa Calm     81% 0 mm 0 W/m2
01:34 13.7 °C 10.6 °C 1031.7 hPa Calm     81.4% 0 mm 0 W/m2
01:39 13.7 °C 10.7 °C 1031.7 hPa Calm     82% 0 mm 0 W/m2
01:44 13.6 °C 10.6 °C 1031.7 hPa Calm     82.3% 0 mm 0 W/m2
01:49 13.5 °C 10.7 °C 1031.7 hPa Calm     82.9% 0 mm 0 W/m2
01:54 13.4 °C 10.6 °C 1031.7 hPa Calm     83% 0 mm 0 W/m2
01:59 13.4 °C 10.6 °C 1031.7 hPa Calm     83% 0 mm 0 W/m2
02:04 13.3 °C 10.6 °C 1031.7 hPa Calm     83.1% 0 mm 0 W/m2
02:09 13.3 °C 10.7 °C 1031.7 hPa Calm     84% 0 mm 0 W/m2
02:14 13.2 °C 10.6 °C 1031.7 hPa Calm     84% 0 mm 0 W/m2
02:19 13.2 °C 10.7 °C 1031.7 hPa Calm     84.9% 0 mm 0 W/m2
02:24 13.2 °C 10.7 °C 1031.7 hPa Calm     85% 0 mm 0 W/m2
02:29 13.1 °C 10.7 °C 1031.7 hPa Calm     85% 0 mm 0 W/m2
02:34 13.1 °C 10.7 °C 1031.7 hPa Calm     85.3% 0 mm 0 W/m2
02:39 13.1 °C 10.7 °C 1031.7 hPa Calm     86% 0 mm 0 W/m2
02:44 13 °C 10.7 °C 1031.7 hPa Calm     86% 0 mm 0 W/m2
02:49 12.9 °C 10.7 °C 1031.7 hPa Calm     86% 0 mm 0 W/m2
02:54 12.9 °C 10.6 °C 1031.7 hPa Calm     86% 0 mm 0 W/m2
02:59 12.8 °C 10.6 °C 1031.7 hPa Calm     86% 0 mm 0 W/m2
03:04 12.8 °C 10.5 °C 1031.7 hPa Calm     86% 0 mm 0 W/m2
03:09 12.8 °C 10.6 °C 1031.7 hPa Calm     86.8% 0 mm 0 W/m2
03:14 12.7 °C 10.6 °C 1031.7 hPa Calm     87% 0 mm 0 W/m2
03:19 12.6 °C 10.6 °C 1031.7 hPa Calm     87% 0 mm 0 W/m2
03:24 12.6 °C 10.4 °C 1031.7 hPa Calm     87% 0 mm 0 W/m2
03:29 12.5 °C 10.4 °C 1031.7 hPa Calm     87% 0 mm 0 W/m2
03:34 12.4 °C 10.3 °C 1031.7 hPa Calm     87% 0 mm 0 W/m2
03:39 12.4 °C 10.3 °C 1031.7 hPa Calm     87.3% 0 mm 0 W/m2
03:44 12.3 °C 10.4 °C 1031.7 hPa Calm     87.9% 0 mm 0 W/m2
03:49 12.3 °C 10.3 °C 1031.7 hPa Calm     88% 0 mm 0 W/m2
03:54 12.2 °C 10.3 °C 1031.7 hPa Calm     88% 0 mm 0 W/m2
03:59 12.2 °C 10.2 °C 1031.7 hPa Calm     88% 0 mm 0 W/m2
04:00 12.2 °C 10.2 °C 1031.7 hPa Calm     88% 0 mm 0 W/m2
04:09 12.1 °C 10.1 °C 1031.4 hPa Calm     88% 0 mm 0 W/m2
04:14 12.1 °C 10.2 °C 1031.4 hPa Calm     88.7% 0 mm 0 W/m2
04:19 12 °C 10.2 °C 1031.4 hPa Calm     89% 0 mm 0 W/m2
04:24 12 °C 10.2 °C 1031.4 hPa Calm     89% 0 mm 0 W/m2
04:29 12 °C 10.3 °C 1031.4 hPa Calm     89.6% 0 mm 0 W/m2
04:34 12 °C 10.4 °C 1031.4 hPa Calm     90% 0 mm 0 W/m2
04:39 11.9 °C 10.4 °C 1031.7 hPa Calm     90% 0 mm 0 W/m2
04:44 11.9 °C 10.3 °C 1031.7 hPa Calm     90% 0 mm 0 W/m2
04:49 11.9 °C 10.3 °C 1031.7 hPa Calm     90% 0 mm 0 W/m2
04:54 11.9 °C 10.3 °C 1031.7 hPa Calm     90% 0 mm 0 W/m2
04:59 11.9 °C 10.3 °C 1031.7 hPa Calm     90% 0 mm 0 W/m2
05:04 11.9 °C 10.3 °C 1031.7 hPa Calm     90% 0 mm 0 W/m2
05:09 12 °C 10.4 °C 1031.7 hPa Calm     90% 0 mm 0 W/m2
05:14 12 °C 10.4 °C 1031.7 hPa Calm     90% 0 mm 0 W/m2
05:19 12.1 °C 10.6 °C 1031.7 hPa Calm     90.7% 0 mm 0 W/m2
05:24 12.1 °C 10.7 °C 1031.7 hPa Calm     91% 0 mm 0 W/m2
05:29 12.1 °C 10.7 °C 1031.7 hPa Calm     91% 0 mm 0 W/m2
05:34 12.2 °C 10.7 °C 1031.7 hPa Calm     91% 0 mm 0 W/m2
05:39 12.2 °C 10.7 °C 1031.7 hPa Calm     91% 0 mm 0 W/m2
05:44 12.2 °C 10.8 °C 1032.1 hPa Calm     91% 0 mm 0 W/m2
05:49 12.2 °C 10.8 °C 1032.1 hPa Calm     91% 0 mm 0 W/m2
05:54 12.3 °C 10.8 °C 1032.1 hPa Calm     91% 0 mm 0 W/m2
05:59 12.3 °C 10.9 °C 1031.7 hPa Calm     91% 0 mm 5 W/m2
06:04 12.3 °C 10.9 °C 1032.1 hPa Calm     91% 0 mm 5 W/m2
06:09 12.4 °C 10.9 °C 1032.1 hPa Calm     91% 0 mm 7 W/m2
06:14 12.4 °C 11 °C 1032.1 hPa Calm     91% 0 mm 7 W/m2
06:19 12.4 °C 11.1 °C 1032.1 hPa Calm     91% 0 mm 7 W/m2
06:24 12.5 °C 11.1 °C 1032.1 hPa Calm     91% 0 mm 9 W/m2
06:29 12.6 °C 11.1 °C 1032.1 hPa Calm     91% 0 mm 12 W/m2
06:34 12.6 °C 11.2 °C 1032.1 hPa Calm     91% 0 mm 14 W/m2
06:39 12.7 °C 11.2 °C 1032.1 hPa Calm     91% 0 mm 16 W/m2
06:44 12.7 °C 11.1 °C 1032.4 hPa Calm     90.1% 0 mm 19 W/m2
06:49 12.7 °C 11.1 °C 1032.1 hPa Calm     90% 0 mm 19 W/m2
06:54 12.8 °C 11.2 °C 1032.4 hPa Calm     90% 0 mm 19 W/m2
06:59 12.8 °C 11.3 °C 1032.4 hPa Calm     90.7% 0 mm 23 W/m2
07:04 12.8 °C 11.3 °C 1032.4 hPa Calm     90% 0 mm 28 W/m2
07:09 12.9 °C 11.3 °C 1032.4 hPa Calm     90% 0 mm 32 W/m2
07:14 12.9 °C 11.3 °C 1032.4 hPa Calm     90% 0 mm 39 W/m2
07:19 13 °C 11.4 °C 1032.4 hPa Calm     90% 0 mm 44 W/m2
07:24 13.1 °C 11.5 °C 1032.4 hPa Calm     90% 0 mm 51 W/m2
07:29 13.2 °C 11.6 °C 1032.4 hPa Calm     90% 0 mm 63 W/m2
07:34 13.2 °C 11.6 °C 1032.4 hPa Calm     90% 0 mm 84 W/m2
07:39 13.3 °C 11.7 °C 1032.4 hPa Calm     90% 0 mm 88 W/m2
07:44 13.4 °C 11.8 °C 1032.4 hPa Calm     90% 0 mm 90 W/m2
07:49 13.4 °C 11.8 °C 1032.4 hPa Calm     89.9% 0 mm 113 W/m2
07:54 13.6 °C 11.8 °C 1032.4 hPa Calm     89.2% 0 mm 137 W/m2
07:59 13.7 °C 12 °C 1032.4 hPa Calm     89.3% 0 mm 146 W/m2
08:00 13.8 °C 12 °C 1032.4 hPa Calm     89% 0 mm 146 W/m2
08:09 14 °C 12.2 °C 1032.4 hPa Calm     89% 0 mm 253 W/m2
08:14 14.2 °C 12.4 °C 1032.4 hPa Calm     89% 0 mm 253 W/m2
08:19 14.4 °C 12.6 °C 1032.4 hPa Calm     88.4% 0 mm 244 W/m2
08:24 14.7 °C 12.6 °C 1032.4 hPa Calm     87.4% 0 mm 225 W/m2
08:29 14.8 °C 12.5 °C 1032.4 hPa Calm     86.1% 0 mm 220 W/m2
08:34 15 °C 12.6 °C 1032.4 hPa Calm     85.4% 0 mm 218 W/m2
08:39 15.2 °C 12.7 °C 1032.4 hPa Calm     85% 0 mm 248 W/m2
08:44 15.4 °C 12.9 °C 1032.4 hPa Calm     84.9% 0 mm 285 W/m2
08:49 15.7 °C 12.8 °C 1032.1 hPa Calm     82.8% 0 mm 406 W/m2
08:54 15.9 °C 12.9 °C 1032.1 hPa Calm     82% 0 mm 580 W/m2
08:59 16.4 °C 13.3 °C 1032.1 hPa Calm     82% 0 mm 543 W/m2
09:04 16.8 °C 13.1 °C 1032.1 hPa Calm     78.5% 0 mm 357 W/m2
09:09 16.9 °C 12.8 °C 1032.1 hPa Calm     76.2% 0 mm 258 W/m2
09:14 17.1 °C 12.8 °C 1032.1 hPa Calm     76.2% 0 mm 244 W/m2
09:19 17.1 °C 12.7 °C 1032.1 hPa Calm   1.6 km/h 75.6% 0 mm 243 W/m2
09:24 17.1 °C 12.6 °C 1032.1 hPa Calm   1.6 km/h 75.2% 0 mm 301 W/m2
09:29 17.1 °C 12.8 °C 1032.1 hPa Calm   1.6 km/h 76% 0 mm 362 W/m2
09:34 17.3 °C 12.9 °C 1031.7 hPa Calm   3.2 km/h 75.5% 0 mm 427 W/m2
09:39 17.6 °C 13.2 °C 1031.7 hPa Calm   3.2 km/h 75.4% 0 mm 464 W/m2
09:44 18 °C 13.3 °C 1031.7 hPa Calm   3.2 km/h 74.2% 0 mm 420 W/m2
09:49 18.4 °C 13.3 °C 1031.7 hPa Calm   3.2 km/h 72.3% 0 mm 420 W/m2
09:54 18.6 °C 13.2 °C 1031.7 hPa Calm   3.2 km/h 71.2% 0 mm 287 W/m2
09:59 18.7 °C 12.5 °C 1031.7 hPa Calm   3.2 km/h 67.3% 0 mm 388 W/m2
10:04 18.8 °C 11.8 °C 1031.4 hPa Calm   3.2 km/h 63.9% 0 mm 360 W/m2
10:09 19 °C 11.9 °C 1031.4 hPa Calm     63.5% 0 mm 360 W/m2
10:14 19.2 °C 11.8 °C 1031.4 hPa SSW 0.2 km/h 4.8 km/h 62.2% 0 mm 366 W/m2
10:19 19.4 °C 11.8 °C 1031.4 hPa Calm   4.8 km/h 61.5% 0 mm 366 W/m2
10:24 19.7 °C 11.9 °C 1031.4 hPa SSW 0.2 km/h 4.8 km/h 60.5% 0 mm 575 W/m2
10:29 20.2 °C 12.2 °C 1031.7 hPa Calm   4.8 km/h 60% 0 mm 831 W/m2
10:34 20.8 °C 12.4 °C 1031.7 hPa Calm   4.8 km/h 59% 0 mm 691 W/m2
10:39 21.3 °C 13.1 °C 1031.4 hPa Calm   1.6 km/h 59.1% 0 mm 946 W/m2
Hartford County Weather
Compliments of Weather Underground - 2 mb